createdAt,value
2019-05-20T00:00:19.744Z,8.00
2019-05-20T00:01:19.745Z,8.00
2019-05-20T00:02:25.764Z,8.00
2019-05-20T00:03:20.727Z,8.00
2019-05-20T00:04:19.705Z,8.00
2019-05-20T00:05:19.716Z,8.00
2019-05-20T00:06:19.684Z,8.00
2019-05-20T00:07:19.703Z,8.00
2019-05-20T00:08:19.655Z,8.00
2019-05-20T00:09:19.651Z,8.00
2019-05-20T00:10:19.647Z,8.00
2019-05-20T00:11:19.675Z,8.00
2019-05-20T00:12:19.627Z,8.00
2019-05-20T00:13:19.624Z,8.00
2019-05-20T00:14:19.603Z,8.00
2019-05-20T00:15:19.593Z,8.00
2019-05-20T00:16:19.596Z,12.00
2019-05-20T00:17:19.585Z,12.00
2019-05-20T00:18:19.552Z,12.00
2019-05-20T00:19:19.543Z,12.00
2019-05-20T00:20:19.533Z,12.00
2019-05-20T00:21:19.527Z,12.00
2019-05-20T00:22:19.534Z,12.00
2019-05-20T00:23:19.623Z,8.00
2019-05-20T00:24:19.502Z,8.00
2019-05-20T00:25:19.474Z,12.00
2019-05-20T00:26:30.061Z,12.00
2019-05-20T00:27:19.484Z,12.00
2019-05-20T00:28:19.442Z,12.00
2019-05-20T00:29:19.454Z,8.00
2019-05-20T00:30:19.421Z,8.00
2019-05-20T00:31:19.425Z,8.00
2019-05-20T00:32:19.425Z,12.00
2019-05-20T00:33:19.449Z,12.00
2019-05-20T00:34:34.167Z,8.00
2019-05-20T00:35:20.396Z,12.00
2019-05-20T00:36:19.374Z,12.00
2019-05-20T00:37:19.350Z,12.00
2019-05-20T00:38:19.345Z,12.00
2019-05-20T00:39:19.379Z,16.00
2019-05-20T00:40:19.320Z,12.00
2019-05-20T00:41:19.341Z,16.00
2019-05-20T00:42:19.302Z,16.00
2019-05-20T00:43:19.313Z,16.00
2019-05-20T00:44:19.287Z,16.00
2019-05-20T00:45:19.291Z,20.00
2019-05-20T00:46:19.396Z,20.00
2019-05-20T00:47:19.261Z,20.00
2019-05-20T00:48:19.247Z,20.00
2019-05-20T00:49:19.236Z,20.00
2019-05-20T00:50:19.240Z,24.00
2019-05-20T00:51:19.221Z,24.00
2019-05-20T00:52:19.199Z,24.00
2019-05-20T00:53:19.202Z,24.00
2019-05-20T00:54:19.190Z,24.00
2019-05-20T00:55:19.244Z,32.00
2019-05-20T00:56:19.149Z,32.00
2019-05-20T00:57:29.295Z,32.00
2019-05-20T00:58:19.132Z,32.00
2019-05-20T00:59:19.122Z,36.00
2019-05-20T01:00:19.114Z,36.00
2019-05-20T01:01:19.135Z,40.00
2019-05-20T01:02:19.094Z,40.00
2019-05-20T01:03:19.114Z,40.00
2019-05-20T01:04:19.071Z,44.00
2019-05-20T01:05:19.073Z,44.00
2019-05-20T01:06:19.086Z,48.00
2019-05-20T01:07:19.052Z,48.00
2019-05-20T01:08:19.023Z,48.00
2019-05-20T01:09:19.046Z,56.00
2019-05-20T01:10:19.016Z,56.00
2019-05-20T01:11:19.028Z,60.00
2019-05-20T01:12:19.099Z,64.00
2019-05-20T01:13:18.973Z,68.00
2019-05-20T01:14:19.021Z,68.00
2019-05-20T01:15:18.960Z,76.00
2019-05-20T01:16:18.939Z,80.00
2019-05-20T01:17:18.976Z,84.00
2019-05-20T01:18:18.938Z,84.00
2019-05-20T01:19:18.919Z,88.00
2019-05-20T01:20:18.914Z,92.00
2019-05-20T01:21:18.879Z,100.00
2019-05-20T01:22:18.897Z,104.00
2019-05-20T01:23:18.929Z,112.00
2019-05-20T01:24:18.870Z,116.00
2019-05-20T01:25:18.836Z,120.00
2019-05-20T01:26:18.845Z,120.00
2019-05-20T01:27:18.830Z,124.00
2019-05-20T01:28:30.882Z,132.00
2019-05-20T01:29:18.789Z,136.00
2019-05-20T01:30:18.788Z,144.00
2019-05-20T01:31:18.782Z,152.00
2019-05-20T01:32:19.349Z,156.00
2019-05-20T01:33:18.760Z,160.00
2019-05-20T01:34:18.802Z,164.00
2019-05-20T01:35:18.742Z,168.00
2019-05-20T01:36:18.718Z,172.00
2019-05-20T01:37:18.749Z,180.00
2019-05-20T01:38:18.713Z,184.00
2019-05-20T01:39:18.698Z,188.00
2019-05-20T01:40:18.689Z,188.00
2019-05-20T01:41:18.746Z,196.00
2019-05-20T01:42:18.706Z,196.00
2019-05-20T01:43:18.647Z,204.00
2019-05-20T01:44:18.662Z,208.00
2019-05-20T01:45:18.669Z,212.00
2019-05-20T01:46:18.632Z,216.00
2019-05-20T01:47:18.617Z,224.00
2019-05-20T01:48:18.605Z,228.00
2019-05-20T01:49:18.620Z,232.00
2019-05-20T01:50:18.589Z,236.00
2019-05-20T01:51:18.577Z,244.00
2019-05-20T01:52:18.579Z,252.00
2019-05-20T01:53:18.568Z,256.00
2019-05-20T01:54:18.536Z,268.00
2019-05-20T01:55:18.591Z,272.00
2019-05-20T01:56:18.528Z,280.00
2019-05-20T01:57:18.506Z,284.00
2019-05-20T01:58:18.495Z,292.00
2019-05-20T01:59:29.096Z,296.00
2019-05-20T02:00:18.486Z,304.00
2019-05-20T02:01:18.522Z,312.00
2019-05-20T02:02:18.444Z,320.00
2019-05-20T02:03:31.341Z,328.00
2019-05-20T02:04:19.433Z,336.00
2019-05-20T02:05:18.456Z,344.00
2019-05-20T02:06:18.411Z,352.00
2019-05-20T02:07:18.436Z,360.00
2019-05-20T02:08:18.393Z,368.00
2019-05-20T02:09:18.385Z,380.00
2019-05-20T02:10:18.370Z,388.00
2019-05-20T02:11:18.351Z,396.00
2019-05-20T02:12:18.364Z,404.00
2019-05-20T02:13:18.363Z,412.00
2019-05-20T02:14:18.331Z,420.00
2019-05-20T02:15:18.342Z,428.00
2019-05-20T02:16:18.322Z,436.00
2019-05-20T02:17:18.349Z,440.00
2019-05-20T02:18:18.299Z,456.00
2019-05-20T02:19:18.280Z,464.00
2019-05-20T02:20:18.276Z,472.00
2019-05-20T02:21:18.273Z,476.00
2019-05-20T02:22:18.229Z,488.00
2019-05-20T02:23:18.269Z,496.00
2019-05-20T02:24:18.250Z,500.00
2019-05-20T02:25:18.225Z,508.00
2019-05-20T02:26:18.232Z,520.00
2019-05-20T02:27:18.213Z,528.00
2019-05-20T02:28:18.189Z,536.00
2019-05-20T02:29:18.181Z,540.00
2019-05-20T02:30:28.272Z,552.00
2019-05-20T02:31:18.156Z,564.00
2019-05-20T02:32:18.149Z,572.00
2019-05-20T02:33:18.129Z,588.00
2019-05-20T02:34:18.147Z,596.00
2019-05-20T02:35:18.095Z,608.00
2019-05-20T02:36:18.085Z,624.00
2019-05-20T02:37:18.090Z,636.00
2019-05-20T02:38:18.099Z,652.00
2019-05-20T02:39:18.076Z,668.00
2019-05-20T02:40:18.098Z,684.00
2019-05-20T02:41:18.051Z,704.00
2019-05-20T02:42:18.043Z,724.00
2019-05-20T02:43:18.031Z,744.00
2019-05-20T02:44:18.029Z,764.00
2019-05-20T02:45:17.997Z,784.00
2019-05-20T02:46:18.011Z,804.00
2019-05-20T02:47:17.977Z,820.00
2019-05-20T02:48:17.969Z,840.00
2019-05-20T02:49:17.995Z,860.00
2019-05-20T02:50:17.959Z,880.00
2019-05-20T02:51:17.953Z,900.00
2019-05-20T02:52:17.922Z,920.00
2019-05-20T02:53:17.915Z,940.00
2019-05-20T02:54:17.898Z,960.00
2019-05-20T02:55:17.909Z,984.00
2019-05-20T02:56:17.894Z,1008.00
2019-05-20T02:57:17.884Z,1028.00
2019-05-20T02:58:17.869Z,1052.00
2019-05-20T02:59:17.855Z,1080.00
2019-05-20T03:00:17.862Z,1104.00
2019-05-20T03:01:28.308Z,1132.00
2019-05-20T03:02:17.821Z,1156.00
2019-05-20T03:03:17.822Z,1184.00
2019-05-20T03:04:17.811Z,1208.00
2019-05-20T03:05:17.806Z,1236.00
2019-05-20T03:06:17.793Z,1252.00
2019-05-20T03:07:17.790Z,1284.00
2019-05-20T03:08:17.752Z,1308.00
2019-05-20T03:09:17.743Z,1332.00
2019-05-20T03:10:17.744Z,1356.00
2019-05-20T03:11:17.731Z,1376.00
2019-05-20T03:12:17.721Z,1400.00
2019-05-20T03:13:17.716Z,1420.00
2019-05-20T03:14:17.719Z,1440.00
2019-05-20T03:15:17.702Z,1452.00
2019-05-20T03:16:17.722Z,1468.00
2019-05-20T03:17:17.672Z,1484.00
2019-05-20T03:18:17.659Z,1496.00
2019-05-20T03:19:17.651Z,1512.00
2019-05-20T03:20:17.630Z,1532.00
2019-05-20T03:21:17.635Z,1556.00
2019-05-20T03:22:17.612Z,1576.00
2019-05-20T03:23:17.610Z,1600.00
2019-05-20T03:24:17.630Z,1624.00
2019-05-20T03:25:17.600Z,1644.00
2019-05-20T03:26:17.586Z,1672.00
2019-05-20T03:27:17.563Z,1692.00
2019-05-20T03:28:17.557Z,1712.00
2019-05-20T03:29:17.537Z,1728.00
2019-05-20T03:30:17.538Z,1744.00
2019-05-20T03:31:17.545Z,1756.00
2019-05-20T03:32:27.693Z,1780.00
2019-05-20T03:33:17.491Z,1804.00
2019-05-20T03:34:41.477Z,1812.00
2019-05-20T03:35:18.469Z,1836.00
2019-05-20T03:36:17.465Z,1860.00
2019-05-20T03:37:17.453Z,1892.00
2019-05-20T03:38:17.482Z,1912.00
2019-05-20T03:39:17.420Z,1944.00
2019-05-20T03:40:17.430Z,1952.00
2019-05-20T03:41:17.505Z,1952.00
2019-05-20T03:42:17.390Z,1980.00
2019-05-20T03:43:17.393Z,2036.00
2019-05-20T03:44:17.441Z,2064.00
2019-05-20T03:45:17.370Z,2076.00
2019-05-20T03:46:17.357Z,2064.00
2019-05-20T03:47:17.373Z,2076.00
2019-05-20T03:48:17.327Z,2100.00
2019-05-20T03:49:17.359Z,2132.00
2019-05-20T03:50:17.315Z,2168.00
2019-05-20T03:51:17.299Z,2188.00
2019-05-20T03:52:17.300Z,2196.00
2019-05-20T03:53:17.275Z,2192.00
2019-05-20T03:54:17.276Z,2192.00
2019-05-20T03:55:17.277Z,2216.00
2019-05-20T03:56:17.252Z,2224.00
2019-05-20T03:57:17.246Z,2172.00
2019-05-20T03:58:17.282Z,2184.00
2019-05-20T03:59:17.233Z,2256.00
2019-05-20T04:00:17.219Z,2288.00
2019-05-20T04:01:17.199Z,2332.00
2019-05-20T04:02:17.175Z,2328.00
2019-05-20T04:03:27.702Z,2324.00
2019-05-20T04:04:17.172Z,2344.00
2019-05-20T04:05:17.196Z,2392.00
2019-05-20T04:06:17.139Z,2440.00
2019-05-20T04:07:17.125Z,2444.00
2019-05-20T04:08:17.118Z,2448.00
2019-05-20T04:09:17.096Z,2424.00
2019-05-20T04:10:17.121Z,2400.00
2019-05-20T04:11:17.108Z,2372.00
2019-05-20T04:12:17.090Z,2376.00
2019-05-20T04:13:17.076Z,2372.00
2019-05-20T04:14:17.034Z,2392.00
2019-05-20T04:15:17.034Z,2380.00
2019-05-20T04:16:17.038Z,2308.00
2019-05-20T04:17:17.033Z,2320.00
2019-05-20T04:18:17.026Z,2284.00
2019-05-20T04:19:17.002Z,2292.00
2019-05-20T04:20:17.016Z,2276.00
2019-05-20T04:21:16.981Z,2240.00
2019-05-20T04:22:16.986Z,2208.00
2019-05-20T04:23:16.971Z,2200.00
2019-05-20T04:24:16.963Z,2200.00
2019-05-20T04:25:16.946Z,2216.00
2019-05-20T04:26:16.925Z,2220.00
2019-05-20T04:27:16.945Z,2216.00
2019-05-20T04:28:16.916Z,2224.00
2019-05-20T04:29:16.894Z,2224.00
2019-05-20T04:30:18.960Z,2232.00
2019-05-20T04:31:16.866Z,2236.00
2019-05-20T04:32:16.901Z,2244.00
2019-05-20T04:33:16.845Z,2248.00
2019-05-20T04:34:29.425Z,2248.00
2019-05-20T04:35:21.955Z,2252.00
2019-05-20T04:36:17.801Z,2260.00
2019-05-20T04:37:16.841Z,2260.00
2019-05-20T04:38:16.792Z,2252.00
2019-05-20T04:39:16.801Z,2256.00
2019-05-20T04:40:16.785Z,2272.00
2019-05-20T04:41:16.765Z,2284.00
2019-05-20T04:42:16.778Z,2296.00
2019-05-20T04:43:16.742Z,2308.00
2019-05-20T04:44:16.724Z,2324.00
2019-05-20T04:45:16.709Z,2340.00
2019-05-20T04:46:16.712Z,2364.00
2019-05-20T04:47:16.713Z,2368.00
2019-05-20T04:48:16.714Z,2376.00
2019-05-20T04:49:16.676Z,2376.00
2019-05-20T04:50:16.668Z,2388.00
2019-05-20T04:51:16.675Z,2388.00
2019-05-20T04:52:16.656Z,2404.00
2019-05-20T04:53:16.711Z,2420.00
2019-05-20T04:54:16.628Z,2444.00
2019-05-20T04:55:16.610Z,2464.00
2019-05-20T04:56:16.610Z,2440.00
2019-05-20T04:57:16.593Z,2516.00
2019-05-20T04:58:16.573Z,2576.00
2019-05-20T04:59:16.634Z,2624.00
2019-05-20T05:00:16.586Z,2684.00
2019-05-20T05:01:16.563Z,2744.00
2019-05-20T05:02:16.537Z,2780.00
2019-05-20T05:03:16.543Z,2796.00
2019-05-20T05:04:16.512Z,2788.00
2019-05-20T05:05:37.282Z,2840.00
2019-05-20T05:06:17.498Z,2876.00
2019-05-20T05:07:16.480Z,2884.00
2019-05-20T05:08:16.462Z,2940.00
2019-05-20T05:09:16.461Z,3000.00
2019-05-20T05:10:16.488Z,3060.00
2019-05-20T05:11:16.437Z,3036.00
2019-05-20T05:12:16.428Z,2896.00
2019-05-20T05:13:16.440Z,2896.00
2019-05-20T05:14:16.426Z,2876.00
2019-05-20T05:15:16.417Z,2968.00
2019-05-20T05:16:16.411Z,3004.00
2019-05-20T05:17:16.421Z,3032.00
2019-05-20T05:18:16.356Z,3036.00
2019-05-20T05:19:16.348Z,2996.00
2019-05-20T05:20:18.492Z,2984.00
2019-05-20T05:21:16.316Z,2948.00
2019-05-20T05:22:16.393Z,2988.00
2019-05-20T05:23:16.336Z,2968.00
2019-05-20T05:24:16.286Z,2924.00
2019-05-20T05:25:16.308Z,3028.00
2019-05-20T05:26:16.307Z,3100.00
2019-05-20T05:27:16.276Z,3176.00
2019-05-20T05:28:16.263Z,3196.00
2019-05-20T05:29:16.268Z,3248.00
2019-05-20T05:30:16.231Z,3428.00
2019-05-20T05:31:16.226Z,3456.00
2019-05-20T05:32:16.255Z,3524.00
2019-05-20T05:33:16.206Z,3500.00
2019-05-20T05:34:16.223Z,3488.00
2019-05-20T05:35:16.176Z,3488.00
2019-05-20T05:36:26.088Z,3464.00
2019-05-20T05:37:16.156Z,3388.00
2019-05-20T05:38:16.151Z,3336.00
2019-05-20T05:39:16.127Z,3356.00
2019-05-20T05:40:16.128Z,3500.00
2019-05-20T05:41:16.135Z,3660.00
2019-05-20T05:42:16.107Z,3648.00
2019-05-20T05:43:16.112Z,3688.00
2019-05-20T05:44:16.157Z,3664.00
2019-05-20T05:45:16.067Z,3600.00
2019-05-20T05:46:16.065Z,3532.00
2019-05-20T05:47:16.070Z,3488.00
2019-05-20T05:48:16.060Z,3288.00
2019-05-20T05:49:16.025Z,3252.00
2019-05-20T05:50:16.033Z,3244.00
2019-05-20T05:51:16.028Z,3244.00
2019-05-20T05:52:16.077Z,3372.00
2019-05-20T05:53:15.976Z,3400.00
2019-05-20T05:54:15.998Z,3516.00
2019-05-20T05:55:16.024Z,3548.00
2019-05-20T05:56:15.970Z,3556.00
2019-05-20T05:57:16.006Z,3704.00
2019-05-20T05:58:15.950Z,3848.00
2019-05-20T05:59:15.988Z,3768.00
2019-05-20T06:00:15.926Z,3728.00
2019-05-20T06:01:15.913Z,3804.00
2019-05-20T06:02:15.935Z,3836.00
2019-05-20T06:03:15.893Z,3756.00
2019-05-20T06:04:15.875Z,3828.00
2019-05-20T06:05:15.877Z,3904.00
2019-05-20T06:06:15.859Z,3964.00
2019-05-20T06:07:26.173Z,3904.00
2019-05-20T06:08:15.847Z,3916.00
2019-05-20T06:09:15.817Z,3900.00
2019-05-20T06:10:15.808Z,3928.00
2019-05-20T06:11:15.816Z,4056.00
2019-05-20T06:12:15.787Z,4032.00
2019-05-20T06:13:15.798Z,4220.00
2019-05-20T06:14:15.767Z,4168.00
2019-05-20T06:15:15.785Z,4304.00
2019-05-20T06:16:15.751Z,4368.00
2019-05-20T06:17:15.785Z,4384.00
2019-05-20T06:18:15.719Z,4456.00
2019-05-20T06:19:15.708Z,4452.00
2019-05-20T06:20:15.708Z,4424.00
2019-05-20T06:21:15.690Z,4332.00
2019-05-20T06:22:15.691Z,4364.00
2019-05-20T06:23:15.678Z,4416.00
2019-05-20T06:24:15.651Z,3612.00
2019-05-20T06:25:15.673Z,3812.00
2019-05-20T06:26:15.660Z,3372.00
2019-05-20T06:27:15.655Z,3916.00
2019-05-20T06:28:15.669Z,3596.00
2019-05-20T06:29:15.603Z,3948.00
2019-05-20T06:30:15.594Z,3540.00
2019-05-20T06:31:15.594Z,3764.00
2019-05-20T06:32:15.715Z,3648.00
2019-05-20T06:33:15.579Z,3488.00
2019-05-20T06:34:15.631Z,3672.00
2019-05-20T06:35:15.577Z,3876.00
2019-05-20T06:36:26.484Z,3896.00
2019-05-20T06:37:16.523Z,3764.00
2019-05-20T06:38:26.168Z,3780.00
2019-05-20T06:39:15.521Z,3700.00
2019-05-20T06:40:15.535Z,3576.00
2019-05-20T06:41:15.500Z,3432.00
2019-05-20T06:42:15.517Z,3524.00
2019-05-20T06:43:15.460Z,3588.00
2019-05-20T06:44:15.478Z,3704.00
2019-05-20T06:45:15.473Z,3796.00
2019-05-20T06:46:15.439Z,3720.00
2019-05-20T06:47:15.430Z,3756.00
2019-05-20T06:48:15.414Z,3736.00
2019-05-20T06:49:15.407Z,3532.00
2019-05-20T06:50:15.429Z,3584.00
2019-05-20T06:51:15.389Z,3588.00
2019-05-20T06:52:15.371Z,3692.00
2019-05-20T06:53:15.357Z,3624.00
2019-05-20T06:54:15.339Z,3548.00
2019-05-20T06:55:15.338Z,3564.00
2019-05-20T06:56:15.328Z,3716.00
2019-05-20T06:57:15.482Z,3896.00
2019-05-20T06:58:15.372Z,4056.00
2019-05-20T06:59:15.338Z,3864.00
2019-05-20T07:00:15.284Z,4108.00
2019-05-20T07:01:15.279Z,3972.00
2019-05-20T07:02:15.279Z,3828.00
2019-05-20T07:03:15.244Z,4248.00
2019-05-20T07:04:15.247Z,4776.00
2019-05-20T07:05:15.251Z,4744.00
2019-05-20T07:06:15.218Z,4580.00
2019-05-20T07:07:20.848Z,4528.00
2019-05-20T07:08:16.219Z,4480.00
2019-05-20T07:09:26.239Z,4476.00
2019-05-20T07:10:15.192Z,4668.00
2019-05-20T07:11:15.161Z,4792.00
2019-05-20T07:12:15.162Z,4992.00
2019-05-20T07:13:16.315Z,5180.00
2019-05-20T07:14:15.122Z,5396.00
2019-05-20T07:15:15.135Z,5440.00
2019-05-20T07:16:15.131Z,5444.00
2019-05-20T07:17:15.102Z,5264.00
2019-05-20T07:18:15.098Z,5024.00
2019-05-20T07:19:15.150Z,4796.00
2019-05-20T07:20:15.203Z,4464.00
2019-05-20T07:21:15.082Z,4272.00
2019-05-20T07:22:15.094Z,4184.00
2019-05-20T07:23:15.048Z,4300.00
2019-05-20T07:24:15.036Z,4544.00
2019-05-20T07:25:15.094Z,4640.00
2019-05-20T07:26:15.032Z,4556.00
2019-05-20T07:27:15.001Z,4444.00
2019-05-20T07:28:15.032Z,4312.00
2019-05-20T07:29:14.971Z,4424.00
2019-05-20T07:30:15.730Z,4584.00
2019-05-20T07:31:14.988Z,4472.00
2019-05-20T07:32:14.965Z,4292.00
2019-05-20T07:33:14.943Z,4380.00
2019-05-20T07:34:14.941Z,4456.00
2019-05-20T07:35:28.630Z,4548.00
2019-05-20T07:36:15.932Z,4604.00
2019-05-20T07:37:14.894Z,4656.00
2019-05-20T07:38:14.926Z,4728.00
2019-05-20T07:39:14.860Z,4676.00
2019-05-20T07:40:25.246Z,4664.00
2019-05-20T07:41:14.850Z,4348.00
2019-05-20T07:42:14.879Z,4124.00
2019-05-20T07:43:14.817Z,4208.00
2019-05-20T07:44:14.817Z,4320.00
2019-05-20T07:45:14.825Z,4356.00
2019-05-20T07:46:14.798Z,4256.00
2019-05-20T07:47:14.801Z,4536.00
2019-05-20T07:48:14.816Z,4260.00
2019-05-20T07:49:14.752Z,4632.00
2019-05-20T07:50:14.769Z,4344.00
2019-05-20T07:51:14.755Z,4584.00
2019-05-20T07:52:14.756Z,4788.00
2019-05-20T07:53:14.756Z,4792.00
2019-05-20T07:54:14.717Z,4720.00
2019-05-20T07:55:14.692Z,4700.00
2019-05-20T07:56:14.733Z,4712.00
2019-05-20T07:57:14.696Z,4620.00
2019-05-20T07:58:14.678Z,4796.00
2019-05-20T07:59:14.664Z,5196.00
2019-05-20T08:00:14.638Z,5228.00
2019-05-20T08:01:14.655Z,4924.00
2019-05-20T08:02:14.628Z,4820.00
2019-05-20T08:03:14.614Z,4936.00
2019-05-20T08:04:14.617Z,4812.00
2019-05-20T08:05:14.601Z,4648.00
2019-05-20T08:06:14.579Z,4856.00
2019-05-20T08:07:27.303Z,4612.00
2019-05-20T08:08:15.558Z,4520.00
2019-05-20T08:09:14.571Z,4352.00
2019-05-20T08:10:14.557Z,4488.00
2019-05-20T08:11:25.270Z,4828.00
2019-05-20T08:12:14.525Z,5120.00
2019-05-20T08:13:14.526Z,5272.00
2019-05-20T08:14:14.543Z,5544.00
2019-05-20T08:15:14.486Z,5304.00
2019-05-20T08:16:14.479Z,5080.00
2019-05-20T08:17:14.455Z,4900.00
2019-05-20T08:18:14.480Z,5540.00
2019-05-20T08:19:14.448Z,5832.00
2019-05-20T08:20:14.461Z,5944.00
2019-05-20T08:21:14.421Z,5892.00
2019-05-20T08:22:14.426Z,5508.00
2019-05-20T08:23:14.423Z,5528.00
2019-05-20T08:24:14.410Z,5732.00
2019-05-20T08:25:14.387Z,5792.00
2019-05-20T08:26:14.367Z,5636.00
2019-05-20T08:27:14.352Z,5636.00
2019-05-20T08:28:14.354Z,5640.00
2019-05-20T08:29:14.347Z,5608.00
2019-05-20T08:30:14.478Z,5592.00
2019-05-20T08:31:19.017Z,5572.00
2019-05-20T08:32:14.552Z,5588.00
2019-05-20T08:33:15.171Z,5368.00
2019-05-20T08:34:15.222Z,5508.00
2019-05-20T08:35:15.556Z,5544.00
2019-05-20T08:36:14.339Z,5772.00
2019-05-20T08:37:14.488Z,5400.00
2019-05-20T08:38:14.345Z,5484.00
2019-05-20T08:39:14.296Z,4948.00
2019-05-20T08:40:14.261Z,4856.00
2019-05-20T08:41:14.576Z,4648.00
2019-05-20T08:42:27.162Z,4696.00
2019-05-20T08:43:14.245Z,5148.00
2019-05-20T08:44:14.197Z,5304.00
2019-05-20T08:45:14.183Z,4952.00
2019-05-20T08:46:14.195Z,5632.00
2019-05-20T08:47:14.157Z,5692.00
2019-05-20T08:48:14.137Z,5680.00
2019-05-20T08:49:14.255Z,5560.00
2019-05-20T08:50:16.346Z,5612.00
2019-05-20T08:51:14.106Z,6080.00
2019-05-20T08:52:14.162Z,6148.00
2019-05-20T08:53:14.086Z,6072.00
2019-05-20T08:54:14.074Z,6040.00
2019-05-20T08:55:14.066Z,5712.00
2019-05-20T08:56:14.056Z,5644.00
2019-05-20T08:57:14.131Z,5284.00
2019-05-20T08:58:14.072Z,5580.00
2019-05-20T08:59:14.144Z,6224.00
2019-05-20T09:00:14.044Z,5136.00
2019-05-20T09:01:13.998Z,5620.00
2019-05-20T09:02:13.983Z,5828.00
2019-05-20T09:03:14.022Z,5636.00
2019-05-20T09:04:13.979Z,5240.00
2019-05-20T09:05:13.976Z,5128.00
2019-05-20T09:06:13.956Z,4868.00
2019-05-20T09:07:13.938Z,4876.00
2019-05-20T09:08:13.916Z,4608.00
2019-05-20T09:09:14.039Z,4532.00
2019-05-20T09:10:13.968Z,4576.00
2019-05-20T09:11:13.904Z,4540.00
2019-05-20T09:12:13.884Z,4444.00
2019-05-20T09:13:23.885Z,4556.00
2019-05-20T09:14:13.871Z,4988.00
2019-05-20T09:15:13.881Z,5748.00
2019-05-20T09:16:13.841Z,5008.00
2019-05-20T09:17:13.842Z,5368.00
2019-05-20T09:18:13.815Z,5792.00
2019-05-20T09:19:13.849Z,5788.00
2019-05-20T09:20:13.856Z,5692.00
2019-05-20T09:21:13.906Z,5688.00
2019-05-20T09:22:13.780Z,5644.00
2019-05-20T09:23:13.780Z,5736.00
2019-05-20T09:24:14.158Z,5680.00
2019-05-20T09:25:14.240Z,5448.00
2019-05-20T09:26:13.897Z,5332.00
2019-05-20T09:27:13.751Z,5508.00
2019-05-20T09:28:13.731Z,5548.00
2019-05-20T09:29:13.755Z,4320.00
2019-05-20T09:30:13.868Z,4556.00
2019-05-20T09:31:13.810Z,4308.00
2019-05-20T09:32:13.661Z,4428.00
2019-05-20T09:33:13.696Z,4340.00
2019-05-20T09:34:13.677Z,5068.00
2019-05-20T09:35:13.674Z,5420.00
2019-05-20T09:36:13.650Z,5348.00
2019-05-20T09:37:13.689Z,5272.00
2019-05-20T09:38:20.359Z,5168.00
2019-05-20T09:39:14.623Z,5312.00
2019-05-20T09:40:13.750Z,5320.00
2019-05-20T09:41:13.601Z,5364.00
2019-05-20T09:42:13.586Z,5200.00
2019-05-20T09:43:13.573Z,5212.00
2019-05-20T09:44:23.824Z,5384.00
2019-05-20T09:45:13.544Z,5440.00
2019-05-20T09:46:13.534Z,5412.00
2019-05-20T09:47:13.531Z,5380.00
2019-05-20T09:48:13.547Z,5328.00
2019-05-20T09:49:13.493Z,5312.00
2019-05-20T09:50:13.518Z,5248.00
2019-05-20T09:51:13.469Z,5188.00
2019-05-20T09:52:13.556Z,5220.00
2019-05-20T09:53:13.490Z,5260.00
2019-05-20T09:54:13.495Z,5252.00
2019-05-20T09:55:13.490Z,5276.00
2019-05-20T09:56:13.437Z,5276.00
2019-05-20T09:57:13.446Z,5368.00
2019-05-20T09:58:13.415Z,5356.00
2019-05-20T09:59:16.337Z,5316.00
2019-05-20T10:00:13.373Z,5336.00
2019-05-20T10:01:13.380Z,5344.00
2019-05-20T10:02:13.353Z,5356.00
2019-05-20T10:03:13.458Z,5356.00
2019-05-20T10:04:13.440Z,5384.00
2019-05-20T10:05:13.339Z,5408.00
2019-05-20T10:06:13.315Z,5436.00
2019-05-20T10:07:13.314Z,5496.00
2019-05-20T10:08:13.307Z,5508.00
2019-05-20T10:09:13.308Z,5500.00
2019-05-20T10:10:13.278Z,5468.00
2019-05-20T10:11:13.274Z,5100.00
2019-05-20T10:12:13.255Z,5420.00
2019-05-20T10:13:13.265Z,5596.00
2019-05-20T10:14:13.273Z,5660.00
2019-05-20T10:15:23.391Z,5668.00
2019-05-20T10:16:13.234Z,5660.00
2019-05-20T10:17:13.198Z,5660.00
2019-05-20T10:18:13.188Z,5344.00
2019-05-20T10:19:13.168Z,5416.00
2019-05-20T10:20:13.197Z,5676.00
2019-05-20T10:21:13.170Z,5648.00
2019-05-20T10:22:13.148Z,5516.00
2019-05-20T10:23:15.774Z,5592.00
2019-05-20T10:24:13.151Z,5132.00
2019-05-20T10:25:13.120Z,5304.00
2019-05-20T10:26:13.113Z,5372.00
2019-05-20T10:27:13.104Z,5520.00
2019-05-20T10:28:13.079Z,5536.00
2019-05-20T10:29:13.099Z,5524.00
2019-05-20T10:30:13.073Z,5504.00
2019-05-20T10:31:13.062Z,5464.00
2019-05-20T10:32:13.047Z,5520.00
2019-05-20T10:33:13.041Z,5648.00
2019-05-20T10:34:13.019Z,5700.00
2019-05-20T10:35:12.998Z,5776.00
2019-05-20T10:36:13.043Z,5788.00
2019-05-20T10:37:13.011Z,5820.00
2019-05-20T10:38:12.987Z,5836.00
2019-05-20T10:39:12.980Z,5908.00
2019-05-20T10:40:12.956Z,5896.00
2019-05-20T10:41:12.953Z,5956.00
2019-05-20T10:42:12.952Z,5944.00
2019-05-20T10:43:12.963Z,5696.00
2019-05-20T10:44:12.900Z,5920.00
2019-05-20T10:45:12.980Z,5920.00
2019-05-20T10:46:22.851Z,5796.00
2019-05-20T10:47:12.896Z,5816.00
2019-05-20T10:48:12.881Z,5708.00
2019-05-20T10:49:12.884Z,5700.00
2019-05-20T10:50:12.855Z,5724.00
2019-05-20T10:51:12.854Z,5820.00
2019-05-20T10:52:12.824Z,5772.00
2019-05-20T10:53:12.834Z,6016.00
2019-05-20T10:54:12.805Z,6056.00
2019-05-20T10:55:12.811Z,6076.00
2019-05-20T10:56:13.291Z,6112.00
2019-05-20T10:57:12.804Z,6068.00
2019-05-20T10:58:12.878Z,6076.00
2019-05-20T10:59:12.844Z,5748.00
2019-05-20T11:00:12.747Z,5552.00
2019-05-20T11:01:12.743Z,5656.00
2019-05-20T11:02:12.714Z,5520.00
2019-05-20T11:03:12.725Z,5224.00
2019-05-20T11:04:12.717Z,5396.00
2019-05-20T11:05:12.732Z,5440.00
2019-05-20T11:06:12.765Z,5556.00
2019-05-20T11:07:12.667Z,5444.00
2019-05-20T11:08:12.676Z,5492.00
2019-05-20T11:09:14.324Z,5056.00
2019-05-20T11:10:12.645Z,4888.00
2019-05-20T11:11:14.300Z,4768.00
2019-05-20T11:12:12.642Z,4760.00
2019-05-20T11:13:12.643Z,4788.00
2019-05-20T11:14:12.644Z,4692.00
2019-05-20T11:15:12.615Z,4424.00
2019-05-20T11:16:12.596Z,4372.00
2019-05-20T11:17:23.641Z,4480.00
2019-05-20T11:18:12.628Z,4384.00
2019-05-20T11:19:12.552Z,4580.00
2019-05-20T11:20:12.555Z,4608.00
2019-05-20T11:21:12.531Z,4768.00
2019-05-20T11:22:12.564Z,5096.00
2019-05-20T11:23:12.537Z,5160.00
2019-05-20T11:24:12.494Z,5216.00
2019-05-20T11:25:12.512Z,5304.00
2019-05-20T11:26:12.485Z,5336.00
2019-05-20T11:27:12.490Z,5396.00
2019-05-20T11:28:12.506Z,5324.00
2019-05-20T11:29:12.507Z,5236.00
2019-05-20T11:30:12.450Z,5340.00
2019-05-20T11:31:12.432Z,5320.00
2019-05-20T11:32:13.231Z,5332.00
2019-05-20T11:33:12.434Z,5304.00
2019-05-20T11:34:12.418Z,5228.00
2019-05-20T11:35:12.412Z,5220.00
2019-05-20T11:36:12.415Z,5192.00
2019-05-20T11:37:12.363Z,5204.00
2019-05-20T11:38:12.374Z,5236.00
2019-05-20T11:39:12.340Z,5208.00
2019-05-20T11:40:13.284Z,5204.00
2019-05-20T11:41:12.345Z,5180.00
2019-05-20T11:42:12.307Z,5192.00
2019-05-20T11:43:12.307Z,5152.00
2019-05-20T11:44:12.304Z,5072.00
2019-05-20T11:45:12.294Z,4996.00
2019-05-20T11:46:12.263Z,4844.00
2019-05-20T11:47:12.261Z,4740.00
2019-05-20T11:48:22.185Z,5080.00
2019-05-20T11:49:12.232Z,5088.00
2019-05-20T11:50:12.244Z,5140.00
2019-05-20T11:51:12.231Z,5140.00
2019-05-20T11:52:12.223Z,5184.00
2019-05-20T11:53:12.204Z,5088.00
2019-05-20T11:54:12.206Z,5168.00
2019-05-20T11:55:12.175Z,5132.00
2019-05-20T11:56:12.524Z,5120.00
2019-05-20T11:57:12.155Z,5084.00
2019-05-20T11:58:16.181Z,5088.00
2019-05-20T11:59:12.134Z,5032.00
2019-05-20T12:00:12.162Z,5028.00
2019-05-20T12:01:12.101Z,5036.00
2019-05-20T12:02:12.125Z,5044.00
2019-05-20T12:03:12.164Z,5048.00
2019-05-20T12:04:12.094Z,5080.00
2019-05-20T12:05:12.081Z,5084.00
2019-05-20T12:06:12.079Z,5092.00
2019-05-20T12:07:12.060Z,5084.00
2019-05-20T12:08:12.053Z,5056.00
2019-05-20T12:09:12.070Z,5016.00
2019-05-20T12:10:12.033Z,5008.00
2019-05-20T12:11:12.011Z,5036.00
2019-05-20T12:12:12.036Z,5012.00
2019-05-20T12:13:12.005Z,4980.00
2019-05-20T12:14:11.993Z,4952.00